createdAt,value
2017-07-23T00:00:44.384Z,20.60
2017-07-23T00:03:12.529Z,20.60
2017-07-23T00:05:41.480Z,20.60
2017-07-23T00:08:09.944Z,20.60
2017-07-23T00:10:38.097Z,20.60
2017-07-23T00:13:06.587Z,20.60
2017-07-23T00:15:36.361Z,20.50
2017-07-23T00:18:05.476Z,20.50
2017-07-23T00:20:33.686Z,20.50
2017-07-23T00:23:01.952Z,20.40
2017-07-23T00:25:30.879Z,20.40
2017-07-23T00:27:59.564Z,20.40
2017-07-23T00:30:28.140Z,20.30
2017-07-23T00:32:56.910Z,20.30
2017-07-23T00:35:25.815Z,20.30
2017-07-23T00:37:53.889Z,20.30
2017-07-23T00:40:22.711Z,20.30
2017-07-23T00:42:51.772Z,20.30
2017-07-23T00:45:20.196Z,20.30
2017-07-23T00:47:49.279Z,20.30
2017-07-23T00:50:18.400Z,20.30
2017-07-23T00:52:47.431Z,20.30
2017-07-23T00:55:15.711Z,20.20
2017-07-23T00:57:44.751Z,20.20
2017-07-23T01:00:13.253Z,20.10
2017-07-23T01:02:40.971Z,20.10
2017-07-23T01:05:09.378Z,20.20
2017-07-23T01:07:38.169Z,20.10
2017-07-23T01:10:07.859Z,20.10
2017-07-23T01:12:36.425Z,20.10
2017-07-23T01:15:05.449Z,20.10
2017-07-23T01:17:34.013Z,20.10
2017-07-23T01:20:03.288Z,20.10
2017-07-23T01:22:32.240Z,20.10
2017-07-23T01:25:01.006Z,20.10
2017-07-23T01:27:29.316Z,20.00
2017-07-23T01:29:57.832Z,20.00
2017-07-23T01:32:26.124Z,20.00
2017-07-23T01:34:54.959Z,19.90
2017-07-23T01:37:23.526Z,19.90
2017-07-23T01:39:52.173Z,19.90
2017-07-23T01:42:21.596Z,19.70
2017-07-23T01:44:49.994Z,19.70
2017-07-23T01:47:18.481Z,19.60
2017-07-23T01:49:47.398Z,19.50
2017-07-23T01:52:16.534Z,19.40
2017-07-23T01:54:44.846Z,19.40
2017-07-23T01:57:13.433Z,19.40
2017-07-23T01:59:41.820Z,19.30
2017-07-23T02:02:11.002Z,19.30
2017-07-23T02:04:39.296Z,19.20
2017-07-23T02:07:07.732Z,19.20
2017-07-23T02:09:36.851Z,19.10
2017-07-23T02:12:05.883Z,19.10
2017-07-23T02:14:35.329Z,19.00
2017-07-23T02:17:03.796Z,19.00
2017-07-23T02:19:32.608Z,19.00
2017-07-23T02:22:01.161Z,19.00
2017-07-23T02:24:29.804Z,19.10
2017-07-23T02:26:58.526Z,19.00
2017-07-23T02:29:27.116Z,19.00
2017-07-23T02:31:55.304Z,19.00
2017-07-23T02:34:23.827Z,19.00
2017-07-23T02:36:52.409Z,19.10
2017-07-23T02:39:20.638Z,19.10
2017-07-23T02:41:49.398Z,19.20
2017-07-23T02:44:17.943Z,19.20
2017-07-23T02:46:47.265Z,19.20
2017-07-23T02:49:17.244Z,19.20
2017-07-23T02:51:45.737Z,19.20
2017-07-23T02:54:14.120Z,19.20
2017-07-23T02:56:42.954Z,19.20
2017-07-23T02:59:11.405Z,19.20
2017-07-23T03:01:39.546Z,19.20
2017-07-23T03:04:08.172Z,19.20
2017-07-23T03:06:36.607Z,19.20
2017-07-23T03:09:05.133Z,19.20
2017-07-23T03:11:33.725Z,19.20
2017-07-23T03:14:02.310Z,19.20
2017-07-23T03:16:30.771Z,19.20
2017-07-23T03:18:59.804Z,19.10
2017-07-23T03:21:28.247Z,19.10
2017-07-23T03:23:57.078Z,19.10
2017-07-23T03:26:28.267Z,19.00
2017-07-23T03:28:57.147Z,19.00
2017-07-23T03:31:25.692Z,18.90
2017-07-23T03:33:54.147Z,18.90
2017-07-23T03:36:22.746Z,18.90
2017-07-23T03:38:51.378Z,18.90
2017-07-23T03:41:20.300Z,18.90
2017-07-23T03:43:49.146Z,18.90
2017-07-23T03:46:19.650Z,18.90
2017-07-23T03:48:48.550Z,18.90
2017-07-23T03:51:18.647Z,18.90
2017-07-23T03:53:47.445Z,18.90
2017-07-23T03:56:16.046Z,18.90
2017-07-23T03:58:44.602Z,18.90
2017-07-23T04:01:15.314Z,18.90
2017-07-23T04:03:43.526Z,18.90
2017-07-23T04:06:11.829Z,18.90
2017-07-23T04:08:40.586Z,18.90
2017-07-23T04:11:08.851Z,18.90
2017-07-23T04:13:37.678Z,18.90
2017-07-23T04:16:06.635Z,18.90
2017-07-23T04:18:35.070Z,18.80
2017-07-23T04:21:03.902Z,18.90
2017-07-23T04:23:32.933Z,18.80
2017-07-23T04:26:02.080Z,18.80
2017-07-23T04:28:31.301Z,18.80
2017-07-23T04:31:00.810Z,18.80
2017-07-23T04:33:29.121Z,18.80
2017-07-23T04:35:57.933Z,18.70
2017-07-23T04:38:26.276Z,18.70
2017-07-23T04:40:55.567Z,18.80
2017-07-23T04:43:23.775Z,18.80
2017-07-23T04:45:53.031Z,18.80
2017-07-23T04:48:21.997Z,18.80
2017-07-23T04:50:50.292Z,18.80
2017-07-23T04:53:20.826Z,18.80
2017-07-23T04:55:48.846Z,18.90
2017-07-23T04:58:16.774Z,18.80
2017-07-23T05:00:45.723Z,18.90
2017-07-23T05:03:14.089Z,18.90
2017-07-23T05:05:42.504Z,18.90
2017-07-23T05:08:11.139Z,18.80
2017-07-23T05:10:40.280Z,18.90
2017-07-23T05:13:08.934Z,18.90
2017-07-23T05:15:38.121Z,18.80
2017-07-23T05:18:06.840Z,18.80
2017-07-23T05:20:35.012Z,18.80
2017-07-23T05:23:03.807Z,18.80
2017-07-23T05:25:31.896Z,18.90
2017-07-23T05:28:00.486Z,18.80
2017-07-23T05:30:28.795Z,18.80
2017-07-23T05:32:57.306Z,18.90
2017-07-23T05:35:25.839Z,19.00
2017-07-23T05:37:54.435Z,19.00
2017-07-23T05:40:23.183Z,19.00
2017-07-23T05:42:51.691Z,19.00
2017-07-23T05:45:20.547Z,19.00
2017-07-23T05:47:48.976Z,19.10
2017-07-23T05:50:17.323Z,19.20
2017-07-23T05:52:46.869Z,19.20
2017-07-23T05:55:16.330Z,19.20
2017-07-23T05:57:44.860Z,19.20
2017-07-23T06:00:15.085Z,19.20
2017-07-23T06:02:43.726Z,19.30
2017-07-23T06:05:12.135Z,19.30
2017-07-23T06:07:42.783Z,19.40
2017-07-23T06:10:12.448Z,19.50
2017-07-23T06:12:41.075Z,19.50
2017-07-23T06:15:09.781Z,19.50
2017-07-23T06:17:38.821Z,19.50
2017-07-23T06:20:07.273Z,19.50
2017-07-23T06:22:35.992Z,19.50
2017-07-23T06:25:04.800Z,19.50
2017-07-23T06:27:34.132Z,19.60
2017-07-23T06:30:02.940Z,19.70
2017-07-23T06:32:31.511Z,19.70
2017-07-23T06:35:00.443Z,19.70
2017-07-23T06:37:29.011Z,19.70
2017-07-23T06:39:57.464Z,19.70
2017-07-23T06:42:26.812Z,19.70
2017-07-23T06:44:55.690Z,19.80
2017-07-23T06:47:24.619Z,19.70
2017-07-23T06:49:53.523Z,19.80
2017-07-23T06:52:21.846Z,19.80
2017-07-23T06:54:51.391Z,19.90
2017-07-23T06:57:20.476Z,19.90
2017-07-23T06:59:49.299Z,19.90
2017-07-23T07:02:17.602Z,19.80
2017-07-23T07:04:46.880Z,19.80
2017-07-23T07:07:15.583Z,19.80
2017-07-23T07:09:44.232Z,19.80
2017-07-23T07:12:12.508Z,19.70
2017-07-23T07:14:41.675Z,19.70
2017-07-23T07:17:10.283Z,19.70
2017-07-23T07:19:39.860Z,19.80
2017-07-23T07:22:08.459Z,19.80
2017-07-23T07:24:39.021Z,19.90
2017-07-23T07:27:07.704Z,19.90
2017-07-23T07:29:37.277Z,20.10
2017-07-23T07:32:06.451Z,20.10
2017-07-23T07:34:35.365Z,20.00
2017-07-23T07:37:04.040Z,20.10
2017-07-23T07:39:33.088Z,20.00
2017-07-23T07:42:01.610Z,20.00
2017-07-23T07:44:30.583Z,20.00
2017-07-23T07:46:59.034Z,19.90
2017-07-23T07:49:27.232Z,19.90
2017-07-23T07:51:55.753Z,19.80
2017-07-23T07:54:24.552Z,19.80
2017-07-23T07:56:52.904Z,19.80
2017-07-23T07:59:21.919Z,19.90
2017-07-23T08:01:50.442Z,19.90
2017-07-23T08:04:18.601Z,19.90
2017-07-23T08:06:47.306Z,20.10
2017-07-23T08:09:15.338Z,20.10
2017-07-23T08:11:44.691Z,20.40
2017-07-23T08:14:13.539Z,20.40
2017-07-23T08:16:42.304Z,20.60
2017-07-23T08:19:11.241Z,20.60
2017-07-23T08:21:40.387Z,20.60
2017-07-23T08:24:08.872Z,20.60
2017-07-23T08:26:38.881Z,20.70
2017-07-23T08:29:07.289Z,20.70
2017-07-23T08:31:36.461Z,20.70
2017-07-23T08:34:05.062Z,20.70
2017-07-23T08:36:34.018Z,20.70
2017-07-23T08:39:02.200Z,20.60
2017-07-23T08:41:31.429Z,20.60
2017-07-23T08:44:00.286Z,20.60
2017-07-23T08:46:29.634Z,20.60
2017-07-23T08:48:58.426Z,20.70
2017-07-23T08:51:27.093Z,20.70
2017-07-23T08:53:55.570Z,20.70
2017-07-23T08:56:24.144Z,20.80
2017-07-23T08:58:53.218Z,20.70
2017-07-23T09:01:21.937Z,20.60
2017-07-23T09:03:51.748Z,20.50
2017-07-23T09:06:19.885Z,20.50
2017-07-23T09:08:49.289Z,20.60
2017-07-23T09:11:17.310Z,20.60
2017-07-23T09:13:45.799Z,20.70
2017-07-23T09:16:13.791Z,20.80
2017-07-23T09:18:42.596Z,20.80
2017-07-23T09:21:11.190Z,20.90
2017-07-23T09:23:38.998Z,20.90
2017-07-23T09:26:07.658Z,21.10
2017-07-23T09:28:36.138Z,21.10
2017-07-23T09:31:04.272Z,21.10
2017-07-23T09:33:32.550Z,21.30
2017-07-23T09:36:01.879Z,21.30
2017-07-23T09:38:31.091Z,21.40
2017-07-23T09:40:59.976Z,21.50
2017-07-23T09:43:28.760Z,21.90
2017-07-23T09:45:56.668Z,21.90
2017-07-23T09:48:25.834Z,22.40
2017-07-23T09:50:54.164Z,22.40
2017-07-23T09:53:22.846Z,22.70
2017-07-23T09:55:51.599Z,23.10
2017-07-23T09:58:20.706Z,23.40
2017-07-23T10:00:49.781Z,23.60
2017-07-23T10:03:18.711Z,23.60
2017-07-23T10:05:47.406Z,23.80
2017-07-23T10:08:15.649Z,24.10
2017-07-23T10:10:43.424Z,24.30
2017-07-23T10:13:12.412Z,24.30
2017-07-23T10:15:41.117Z,24.30
2017-07-23T10:18:09.891Z,24.40
2017-07-23T10:20:38.382Z,24.30
2017-07-23T10:23:07.285Z,24.00
2017-07-23T10:25:36.305Z,23.70
2017-07-23T10:28:04.975Z,23.30
2017-07-23T10:30:33.154Z,23.00
2017-07-23T10:33:01.847Z,22.80
2017-07-23T10:35:30.212Z,22.80
2017-07-23T10:37:58.608Z,22.70
2017-07-23T10:40:27.508Z,22.40
2017-07-23T10:42:55.927Z,22.30
2017-07-23T10:45:24.560Z,22.30
2017-07-23T10:47:53.363Z,22.20
2017-07-23T10:50:21.718Z,22.10
2017-07-23T10:52:51.104Z,22.00
2017-07-23T10:55:19.525Z,22.00
2017-07-23T10:57:48.280Z,22.00
2017-07-23T11:00:16.913Z,21.90
2017-07-23T11:02:45.002Z,22.00
2017-07-23T11:05:13.801Z,22.10
2017-07-23T11:07:42.243Z,22.00
2017-07-23T11:10:11.356Z,22.00
2017-07-23T11:12:39.871Z,22.00
2017-07-23T11:15:09.297Z,22.00
2017-07-23T11:17:37.837Z,22.00
2017-07-23T11:20:06.210Z,22.10
2017-07-23T11:22:34.401Z,21.90
2017-07-23T11:25:02.934Z,21.80
2017-07-23T11:27:30.971Z,21.90
2017-07-23T11:29:59.040Z,21.90
2017-07-23T11:32:28.648Z,21.90
2017-07-23T11:34:57.627Z,22.00
2017-07-23T11:37:26.249Z,22.00
2017-07-23T11:39:55.497Z,21.90
2017-07-23T11:42:24.292Z,21.90
2017-07-23T11:44:53.035Z,21.80
2017-07-23T11:47:21.812Z,21.90
2017-07-23T11:49:50.315Z,21.60
2017-07-23T11:52:19.039Z,21.60
2017-07-23T11:54:47.579Z,21.60
2017-07-23T11:57:15.946Z,21.60
2017-07-23T11:59:44.688Z,21.90
2017-07-23T12:02:13.604Z,21.90
2017-07-23T12:04:42.439Z,21.90
2017-07-23T12:07:10.805Z,22.00
2017-07-23T12:09:39.182Z,22.00
2017-07-23T12:12:08.324Z,22.00
2017-07-23T12:14:36.259Z,22.00
2017-07-23T12:17:04.695Z,21.90
2017-07-23T12:19:32.990Z,21.90
2017-07-23T12:22:02.592Z,21.90
2017-07-23T12:24:32.339Z,21.90
2017-07-23T12:27:00.567Z,21.80
2017-07-23T12:29:29.178Z,21.90
2017-07-23T12:31:58.191Z,21.90
2017-07-23T12:34:26.830Z,22.00
2017-07-23T12:36:57.102Z,22.00
2017-07-23T12:39:26.383Z,22.00
2017-07-23T12:41:55.532Z,22.00
2017-07-23T12:44:24.297Z,22.10
2017-07-23T12:46:52.740Z,22.10
2017-07-23T12:49:21.894Z,22.10
2017-07-23T12:51:50.714Z,22.20
2017-07-23T12:54:18.644Z,22.30
2017-07-23T12:56:46.654Z,22.30
2017-07-23T12:59:15.990Z,22.40
2017-07-23T13:01:45.049Z,22.50
2017-07-23T13:04:14.352Z,22.50
2017-07-23T13:06:43.174Z,22.50
2017-07-23T13:09:11.459Z,22.60
2017-07-23T13:11:39.985Z,22.60
2017-07-23T13:14:08.653Z,22.60
2017-07-23T13:16:37.269Z,22.60
2017-07-23T13:19:05.992Z,22.70
2017-07-23T13:21:34.297Z,22.70
2017-07-23T13:24:03.304Z,22.70
2017-07-23T13:26:33.196Z,22.60
2017-07-23T13:29:01.582Z,22.60
2017-07-23T13:31:30.581Z,22.60
2017-07-23T13:33:59.731Z,22.60
2017-07-23T13:36:29.932Z,22.60
2017-07-23T13:38:58.250Z,22.60
2017-07-23T13:41:26.681Z,22.70
2017-07-23T13:43:54.439Z,22.80
2017-07-23T13:46:23.384Z,22.80
2017-07-23T13:48:51.249Z,22.80
2017-07-23T13:51:20.039Z,22.80
2017-07-23T13:53:48.524Z,22.80
2017-07-23T13:56:17.155Z,22.80
2017-07-23T13:58:46.753Z,22.80
2017-07-23T14:01:15.370Z,22.80
2017-07-23T14:03:43.785Z,22.80
2017-07-23T14:06:12.937Z,22.80
2017-07-23T14:08:41.201Z,22.90
2017-07-23T14:11:09.709Z,22.90
2017-07-23T14:13:37.771Z,22.90
2017-07-23T14:16:06.593Z,23.00
2017-07-23T14:18:34.663Z,23.00
2017-07-23T14:21:03.500Z,22.90
2017-07-23T14:23:31.928Z,22.90
2017-07-23T14:26:00.086Z,22.90
2017-07-23T14:28:28.164Z,22.80
2017-07-23T14:30:56.662Z,22.70
2017-07-23T14:33:24.747Z,22.70
2017-07-23T14:35:53.480Z,22.80
2017-07-23T14:38:21.976Z,22.80
2017-07-23T14:40:50.586Z,22.90
2017-07-23T14:43:19.530Z,22.90
2017-07-23T14:45:47.857Z,22.90
2017-07-23T14:48:16.255Z,22.90
2017-07-23T14:50:44.466Z,22.90
2017-07-23T14:53:12.936Z,22.90
2017-07-23T14:55:42.169Z,22.90
2017-07-23T14:58:10.806Z,22.70
2017-07-23T15:00:39.822Z,22.70
2017-07-23T15:03:09.319Z,22.60
2017-07-23T15:05:38.101Z,22.60
2017-07-23T15:08:06.090Z,22.60
2017-07-23T15:10:35.288Z,22.60
2017-07-23T15:13:05.667Z,22.60
2017-07-23T15:15:34.482Z,22.60
2017-07-23T15:18:03.807Z,22.60
2017-07-23T15:20:32.728Z,22.70
2017-07-23T15:23:00.999Z,22.60
2017-07-23T15:25:29.473Z,22.90
2017-07-23T15:27:58.497Z,22.90
2017-07-23T15:30:27.034Z,22.90
2017-07-23T15:32:55.612Z,23.00
2017-07-23T15:35:23.722Z,23.10
2017-07-23T15:37:51.873Z,23.10
2017-07-23T15:40:20.399Z,23.20
2017-07-23T15:42:48.310Z,23.20
2017-07-23T15:45:17.401Z,23.40
2017-07-23T15:47:45.971Z,23.40
2017-07-23T15:50:14.543Z,23.60
2017-07-23T15:52:42.442Z,23.60
2017-07-23T15:55:11.163Z,23.60
2017-07-23T15:57:39.492Z,23.60
2017-07-23T16:00:08.356Z,23.50
2017-07-23T16:02:36.597Z,23.50
2017-07-23T16:05:04.802Z,23.40
2017-07-23T16:07:33.652Z,23.60
2017-07-23T16:10:01.827Z,23.60
2017-07-23T16:12:30.009Z,23.70
2017-07-23T16:14:58.301Z,23.80
2017-07-23T16:17:27.163Z,23.80
2017-07-23T16:19:56.195Z,23.80
2017-07-23T16:22:24.671Z,23.80
2017-07-23T16:24:53.966Z,23.80
2017-07-23T16:27:22.043Z,23.80
2017-07-23T16:29:50.917Z,23.70
2017-07-23T16:32:19.440Z,23.60
2017-07-23T16:34:47.725Z,23.60
2017-07-23T16:37:16.437Z,23.40
2017-07-23T16:39:45.414Z,23.40
2017-07-23T16:42:14.193Z,23.30
2017-07-23T16:44:42.716Z,23.20
2017-07-23T16:47:11.127Z,23.20
2017-07-23T16:49:39.767Z,23.30
2017-07-23T16:52:08.890Z,23.30
2017-07-23T16:54:37.408Z,23.20
2017-07-23T16:57:05.899Z,23.30
2017-07-23T16:59:34.153Z,23.30
2017-07-23T17:02:02.309Z,23.30
2017-07-23T17:04:30.891Z,23.40
2017-07-23T17:06:59.143Z,23.40
2017-07-23T17:09:27.370Z,23.40
2017-07-23T17:11:55.742Z,23.40
2017-07-23T17:14:23.989Z,23.40
2017-07-23T17:16:52.066Z,23.40
2017-07-23T17:19:20.587Z,23.40
2017-07-23T17:21:48.950Z,23.40
2017-07-23T17:24:16.814Z,23.40
2017-07-23T17:29:20.229Z,23.30
2017-07-23T17:31:48.285Z,23.40
2017-07-23T17:34:17.924Z,23.30
2017-07-23T17:36:46.067Z,23.30
2017-07-23T17:39:14.761Z,23.20
2017-07-23T17:41:43.302Z,23.10
2017-07-23T17:44:11.690Z,23.10
2017-07-23T17:46:40.708Z,23.10
2017-07-23T17:49:09.261Z,23.10
2017-07-23T17:51:37.327Z,23.10
2017-07-23T17:54:05.588Z,23.10
2017-07-23T17:56:33.759Z,23.00
2017-07-23T17:59:02.652Z,23.00
2017-07-23T18:01:30.525Z,23.00
2017-07-23T18:03:58.441Z,23.00
2017-07-23T18:06:26.999Z,23.00
2017-07-23T18:08:55.265Z,23.00
2017-07-23T18:11:23.492Z,23.00
2017-07-23T18:13:53.295Z,23.00
2017-07-23T18:16:21.985Z,23.00
2017-07-23T18:18:49.930Z,22.90
2017-07-23T18:21:18.515Z,22.90
2017-07-23T18:23:46.658Z,22.90
2017-07-23T18:26:14.935Z,22.80
2017-07-23T18:28:43.153Z,22.70
2017-07-23T18:31:11.083Z,22.70
2017-07-23T18:33:39.554Z,22.60
2017-07-23T18:36:07.497Z,22.60
2017-07-23T18:38:35.557Z,22.60
2017-07-23T18:41:04.141Z,22.50
2017-07-23T18:43:32.586Z,22.50
2017-07-23T18:46:01.112Z,22.40
2017-07-23T18:48:29.313Z,22.30
2017-07-23T18:50:57.750Z,22.30
2017-07-23T18:53:25.894Z,22.30
2017-07-23T18:55:55.001Z,22.20
2017-07-23T18:58:23.678Z,22.10
2017-07-23T19:00:51.990Z,22.10
2017-07-23T19:03:20.854Z,22.10
2017-07-23T19:05:49.420Z,21.90
2017-07-23T19:08:17.708Z,21.90
2017-07-23T19:13:20.593Z,21.90
2017-07-23T19:15:48.991Z,21.80
2017-07-23T19:18:17.700Z,21.80
2017-07-23T19:20:46.131Z,21.80
2017-07-23T19:23:14.855Z,21.80
2017-07-23T19:25:43.977Z,21.70
2017-07-23T19:28:14.334Z,21.70
2017-07-23T19:30:42.570Z,21.70
2017-07-23T19:33:10.525Z,21.60
2017-07-23T19:35:39.783Z,21.60
2017-07-23T19:38:07.972Z,21.60
2017-07-23T19:40:35.768Z,21.50
2017-07-23T19:43:04.010Z,21.50
2017-07-23T19:45:33.138Z,21.40
2017-07-23T19:48:01.698Z,21.40
2017-07-23T19:50:30.496Z,21.40
2017-07-23T19:52:59.061Z,21.40
2017-07-23T19:55:27.310Z,21.40
2017-07-23T19:57:55.366Z,21.30
2017-07-23T20:00:23.664Z,21.30
2017-07-23T20:02:52.494Z,21.30
2017-07-23T20:05:21.410Z,21.20
2017-07-23T20:07:49.933Z,21.20
2017-07-23T20:10:19.316Z,21.20
2017-07-23T20:12:47.721Z,21.20
2017-07-23T20:15:16.150Z,21.20
2017-07-23T20:17:44.527Z,21.20
2017-07-23T20:20:13.074Z,21.20
2017-07-23T20:22:41.559Z,21.20
2017-07-23T20:25:10.253Z,21.20
2017-07-23T20:27:38.440Z,21.20
2017-07-23T20:30:07.712Z,21.20
2017-07-23T20:32:37.572Z,21.20
2017-07-23T20:35:06.269Z,21.20
2017-07-23T20:37:34.918Z,21.10
2017-07-23T20:40:05.043Z,21.10
2017-07-23T20:42:34.582Z,21.10
2017-07-23T20:45:02.793Z,21.10
2017-07-23T20:47:30.663Z,21.10
2017-07-23T20:49:59.196Z,21.10
2017-07-23T20:52:27.131Z,21.10
2017-07-23T20:54:56.318Z,21.10
2017-07-23T20:57:25.142Z,21.10
2017-07-23T20:59:53.854Z,21.10
2017-07-23T21:02:21.939Z,21.10
2017-07-23T21:04:50.115Z,21.10
2017-07-23T21:07:18.092Z,21.00
2017-07-23T21:09:46.891Z,21.00
2017-07-23T21:12:15.683Z,21.00
2017-07-23T21:14:43.843Z,21.00
2017-07-23T21:17:12.793Z,21.00
2017-07-23T21:19:41.643Z,21.10
2017-07-23T21:22:11.203Z,21.10
2017-07-23T21:24:39.561Z,21.10
2017-07-23T21:27:07.873Z,21.10
2017-07-23T21:29:36.167Z,21.10
2017-07-23T21:32:04.921Z,21.20
2017-07-23T21:34:33.930Z,21.20
2017-07-23T21:37:02.439Z,21.10
2017-07-23T21:39:31.098Z,21.20
2017-07-23T21:41:59.606Z,21.20
2017-07-23T21:44:27.820Z,21.20
2017-07-23T21:46:56.795Z,21.20
2017-07-23T21:49:25.503Z,21.20
2017-07-23T21:51:54.474Z,21.10
2017-07-23T21:54:22.867Z,21.10
2017-07-23T21:56:52.093Z,21.10
2017-07-23T21:59:20.240Z,21.10
2017-07-23T22:01:49.199Z,21.10
2017-07-23T22:04:17.543Z,21.10
2017-07-23T22:06:45.413Z,21.10
2017-07-23T22:09:13.947Z,21.10
2017-07-23T22:11:42.316Z,21.10
2017-07-23T22:14:10.881Z,21.10
2017-07-23T22:16:39.536Z,21.10
2017-07-23T22:19:07.944Z,21.10
2017-07-23T22:21:36.245Z,21.00
2017-07-23T22:24:04.975Z,21.00
2017-07-23T22:26:33.349Z,21.00
2017-07-23T22:29:01.679Z,21.00
2017-07-23T22:31:30.355Z,21.00
2017-07-23T22:33:59.181Z,20.90
2017-07-23T22:36:27.760Z,20.90
2017-07-23T22:38:56.595Z,20.80
2017-07-23T22:41:25.131Z,20.80
2017-07-23T22:43:53.251Z,20.80
2017-07-23T22:46:20.995Z,20.70
2017-07-23T22:48:49.251Z,20.70
2017-07-23T22:51:17.139Z,20.70
2017-07-23T22:53:45.536Z,20.70
2017-07-23T22:56:13.855Z,20.60
2017-07-23T22:58:42.748Z,20.60
2017-07-23T23:01:11.113Z,20.60
2017-07-23T23:03:40.424Z,20.60
2017-07-23T23:06:09.351Z,20.60
2017-07-23T23:08:37.873Z,20.60
2017-07-23T23:11:06.549Z,20.60
2017-07-23T23:13:35.562Z,20.60
2017-07-23T23:16:04.142Z,20.60
2017-07-23T23:18:32.368Z,20.60
2017-07-23T23:21:00.420Z,20.60
2017-07-23T23:23:28.680Z,20.60
2017-07-23T23:25:57.154Z,20.50
2017-07-23T23:28:25.705Z,20.50
2017-07-23T23:30:54.410Z,20.50
2017-07-23T23:33:22.865Z,20.50
2017-07-23T23:35:50.906Z,20.50
2017-07-23T23:38:19.968Z,20.50
2017-07-23T23:40:48.257Z,20.40
2017-07-23T23:43:17.085Z,20.40
2017-07-23T23:45:45.307Z,20.40
2017-07-23T23:48:14.062Z,20.40
2017-07-23T23:50:42.762Z,20.40
2017-07-23T23:53:11.285Z,20.40
2017-07-23T23:55:40.506Z,20.30
2017-07-23T23:58:08.865Z,20.30
